Time;durP1;ratioP1;P1;durP2;ratioP2;P2;SDS_P1;SDS_P2;PMS_P1;PMS_P2;Temp;Humidity;BMP_temperature;BMP_pressure;BME280_temperature;BME280_humidity;BME280_pressure;Samples;Min_cycle;Max_cycle;Signal;HPM_P1;HPM_P2
2023/07/06 04:10:11;;;;;;;6.12;3.90;;;;;;;22.65;69.06;100382.22;5608489;31;76988;-60
2023/07/06 04:13:14;;;;;;;6.35;3.78;;;;;;;22.65;69.06;100382.22;5602959;31;34104;-61
2023/07/06 04:16:17;;;;;;;7.00;4.07;;;;;;;22.23;72.59;100393.88;5583359;32;34254;-60
2023/07/06 04:19:20;;;;;;;7.35;3.80;;;;;;;22.30;70.45;100393.22;5583872;32;33494;-61
2023/07/06 04:22:22;;;;;;;7.55;3.40;;;;;;;22.31;68.41;100399.47;5581202;31;34435;-60
2023/07/06 04:25:31;;;;;;;8.95;3.70;;;;;;;22.10;67.16;100399.81;5583159;32;34266;-60
2023/07/06 04:28:33;;;;;;;6.10;3.15;;;;;;;22.15;69.11;100405.81;5583238;32;33629;-60
2023/07/06 04:31:37;;;;;;;5.55;3.28;;;;;;;22.34;72.06;100415.16;5583435;31;34214;-60
2023/07/06 04:34:40;;;;;;;6.93;3.58;;;;;;;22.39;68.01;100407.47;5583248;31;35138;-60
2023/07/06 04:37:45;;;;;;;7.28;3.40;;;;;;;22.45;75.26;100406.03;5583529;31;33631;-60
2023/07/06 04:40:49;;;;;;;7.25;3.50;;;;;;;22.55;66.29;100421.06;5563510;32;34332;-60
2023/07/06 04:43:52;;;;;;;5.18;3.10;;;;;;;22.55;67.45;100412.88;5575916;32;34366;-60
2023/07/06 04:46:58;;;;;;;5.28;2.72;;;;;;;22.56;63.35;100408.97;5583386;32;34265;-60
2023/07/06 04:50:02;;;;;;;6.03;3.20;;;;;;;22.47;63.98;100406.44;5582822;32;34038;-60
2023/07/06 04:53:07;;;;;;;6.05;3.80;;;;;;;22.50;64.13;100408.47;5582831;32;33541;-60
2023/07/06 04:56:11;;;;;;;5.12;3.30;;;;;;;22.62;67.44;100398.56;5572884;31;34386;-60
2023/07/06 04:59:13;;;;;;;6.57;2.97;;;;;;;22.63;66.61;100403.66;5583179;32;34357;-60
2023/07/06 05:02:16;;;;;;;4.68;2.80;;;;;;;22.61;65.04;100408.66;5565232;31;33292;-60
2023/07/06 05:05:18;;;;;;;4.93;3.08;;;;;;;22.62;63.04;100414.94;5598724;31;33954;-61
2023/07/06 05:08:21;;;;;;;5.10;3.05;;;;;;;22.61;64.71;100419.59;5599064;31;33602;-60
2023/07/06 05:11:25;;;;;;;11.30;3.08;;;;;;;22.58;63.74;100414.06;5582379;31;34419;-62
2023/07/06 05:14:27;;;;;;;5.30;3.42;;;;;;;22.51;65.56;100414.72;5581606;31;33594;-60
2023/07/06 05:17:30;;;;;;;7.25;3.92;;;;;;;22.70;70.94;100411.97;5575526;31;33602;-60
2023/07/06 05:20:33;;;;;;;6.90;3.20;;;;;;;22.75;72.28;100419.91;5570339;32;34233;-60
2023/07/06 05:23:35;;;;;;;9.13;3.08;;;;;;;22.86;66.56;100419.31;5550645;32;34330;-60
2023/07/06 05:26:38;;;;;;;5.68;3.10;;;;;;;22.75;70.21;100430.03;5567798;32;34347;-60
2023/07/06 05:29:40;;;;;;;6.20;3.25;;;;;;;22.71;71.34;100434.63;5568888;31;33704;-61
2023/07/06 05:32:42;;;;;;;10.52;3.35;;;;;;;22.75;71.99;100441.75;5570218;31;34250;-60
2023/07/06 05:35:46;;;;;;;8.43;3.40;;;;;;;22.79;73.58;100451.97;5568832;32;33635;-60
2023/07/06 05:38:51;;;;;;;8.18;3.37;;;;;;;22.67;72.22;100455.62;5569175;32;33446;-60
2023/07/06 05:41:53;;;;;;;7.78;3.08;;;;;;;22.50;74.57;100448.66;5567435;31;34385;-60
2023/07/06 05:44:56;;;;;;;7.12;3.65;;;;;;;22.35;70.87;100458.50;5581420;31;33831;-60
2023/07/06 05:47:58;;;;;;;6.78;3.12;;;;;;;22.28;73.67;100458.31;5568838;32;34372;-60
2023/07/06 05:51:01;;;;;;;9.07;3.20;;;;;;;22.19;72.00;100464.00;5569276;32;33636;-61
2023/07/06 05:54:03;;;;;;;7.87;3.33;;;;;;;22.13;76.50;100453.69;5577512;31;33607;-60
2023/07/06 05:57:09;;;;;;;7.30;3.12;;;;;;;21.93;76.66;100459.09;5579112;31;33576;-60
2023/07/06 06:00:13;;;;;;;10.13;3.67;;;;;;;21.86;78.60;100460.87;5568487;32;34361;-60
2023/07/06 06:03:16;;;;;;;9.90;3.27;;;;;;;21.63;80.51;100456.06;5558055;32;34332;-60
2023/07/06 06:06:21;;;;;;;8.70;3.60;;;;;;;21.60;83.33;100455.97;5580549;31;33715;-60
2023/07/06 06:09:25;;;;;;;6.68;3.65;;;;;;;21.45;83.17;100465.72;5580314;31;33595;-59
2023/07/06 06:12:28;;;;;;;6.70;3.42;;;;;;;21.51;88.16;100467.84;5577231;31;34392;-59
2023/07/06 06:15:30;;;;;;;11.10;3.92;;;;;;;21.59;93.42;100466.09;5569087;32;33582;-58
2023/07/06 06:18:33;;;;;;;8.48;3.53;;;;;;;21.83;87.97;100461.59;5569398;32;33589;-59
2023/07/06 06:21:35;;;;;;;7.95;3.78;;;;;;;21.78;87.71;100463.41;5572513;31;33943;-58
2023/07/06 06:24:38;;;;;;;8.27;3.80;;;;;;;21.64;85.88;100473.22;5569624;31;33577;-59
2023/07/06 06:27:40;;;;;;;7.57;3.80;;;;;;;21.62;88.00;100484.47;5577840;31;33561;-58
2023/07/06 06:30:42;;;;;;;8.05;3.80;;;;;;;21.72;87.99;100494.87;5578926;31;33673;-59
2023/07/06 06:33:46;;;;;;;6.28;4.05;;;;;;;21.68;91.68;100493.19;5576463;31;34412;-59
2023/07/06 06:36:49;;;;;;;7.90;3.85;;;;;;;21.72;90.86;100494.87;5568856;31;34259;-59
2023/07/06 06:39:51;;;;;;;8.95;4.20;;;;;;;21.98;90.69;100498.97;5569152;32;34401;-58
2023/07/06 06:42:54;;;;;;;6.32;3.60;;;;;;;21.99;90.74;100484.97;5558811;31;33121;-59
2023/07/06 06:45:57;;;;;;;7.57;4.07;;;;;;;21.94;84.99;100485.25;5549737;32;33566;-58
2023/07/06 06:49:00;;;;;;;7.90;4.10;;;;;;;22.03;81.66;100474.16;5553879;31;34161;-59
2023/07/06 06:52:03;;;;;;;5.87;3.50;;;;;;;22.09;80.30;100485.59;5569283;31;33255;-59
2023/07/06 06:55:07;;;;;;;6.78;3.67;;;;;;;22.19;82.03;100496.00;5566851;31;33576;-59
2023/07/06 06:58:10;;;;;;;6.62;3.62;;;;;;;22.13;81.81;100497.38;5563442;31;34269;-59
2023/07/06 07:01:15;;;;;;;8.65;3.53;;;;;;;22.16;78.63;100496.69;5565226;32;34348;-59
2023/07/06 07:04:20;;;;;;;;;;;;;;;22.21;78.49;100490.94;5564308;32;34283;-59
2023/07/06 07:07:22;;;;;;;7.37;4.10;;;;;;;22.31;80.23;100484.94;5555194;32;33955;-59
2023/07/06 07:10:25;;;;;;;8.73;4.00;;;;;;;22.57;81.19;100491.72;5551913;32;33504;-59
2023/07/06 07:13:30;;;;;;;10.57;3.83;;;;;;;22.69;77.56;100480.66;5568876;32;33658;-59
2023/07/06 07:16:34;;;;;;;8.32;4.37;;;;;;;22.73;76.00;100478.78;5575658;31;33609;-59
2023/07/06 07:19:37;;;;;;;8.93;3.70;;;;;;;22.83;73.50;100477.41;5578324;31;33592;-59
2023/07/06 07:22:39;;;;;;;7.55;3.90;;;;;;;22.86;74.54;100476.69;5568977;32;33621;-58
2023/07/06 07:25:42;;;;;;;6.70;3.83;;;;;;;22.93;74.88;100476.88;5570994;31;33940;-59
2023/07/06 07:28:48;;;;;;;7.80;4.05;;;;;;;22.92;72.20;100472.53;5562896;31;33666;-58
2023/07/06 07:31:50;;;;;;;5.80;3.80;;;;;;;23.00;69.58;100470.75;5568503;32;33713;-58
2023/07/06 07:34:53;;;;;;;6.93;3.70;;;;;;;23.03;70.61;100470.00;5572731;31;33640;-59
2023/07/06 07:37:56;;;;;;;8.63;3.92;;;;;;;23.02;73.52;100474.69;5570646;31;33947;-59
2023/07/06 07:41:01;;;;;;;9.43;3.87;;;;;;;22.93;71.50;100469.44;5568339;32;34329;-59
2023/07/06 07:44:04;;;;;;;12.50;4.03;;;;;;;22.86;71.65;100463.03;5568202;32;34170;-59
2023/07/06 07:47:06;;;;;;;6.10;3.92;;;;;;;22.84;72.79;100473.53;5568490;32;34308;-59
2023/07/06 07:50:09;;;;;;;8.48;3.65;;;;;;;22.77;73.71;100476.91;5568670;32;33321;-59
2023/07/06 07:53:12;;;;;;;6.72;3.70;;;;;;;22.78;74.97;100472.22;5567045;32;34378;-59
2023/07/06 07:56:15;;;;;;;9.10;3.67;;;;;;;22.89;75.00;100479.50;5568330;32;34355;-59
2023/07/06 07:59:19;;;;;;;7.30;3.65;;;;;;;22.90;74.32;100469.34;5568204;32;33535;-58
2023/07/06 08:02:21;;;;;;;6.78;3.87;;;;;;;22.96;73.42;100476.12;5568350;31;33946;-59
2023/07/06 08:05:23;;;;;;;9.43;3.95;;;;;;;23.07;72.13;100468.91;5572191;31;33267;-59
2023/07/06 08:08:26;;;;;;;7.15;3.40;;;;;;;23.15;74.17;100467.13;5569679;31;32931;-59
2023/07/06 08:11:28;;;;;;;6.65;4.20;;;;;;;23.19;71.06;100468.75;5565051;31;33794;-59
2023/07/06 08:14:34;;;;;;;8.70;4.32;;;;;;;23.21;75.59;100465.66;5574789;31;33275;-59
2023/07/06 08:17:36;;;;;;;;;;;;;;;23.18;69.49;100467.19;5567934;32;33236;-58
2023/07/06 08:20:40;;;;;;;6.95;3.65;;;;;;;23.21;69.75;100466.47;5567696;32;33918;-59
2023/07/06 08:24:03;;;;;;;8.10;3.95;;;;;;;23.32;73.52;100466.66;5563385;32;33583;-58
2023/07/06 08:27:06;;;;;;;7.50;3.97;;;;;;;23.36;69.20;100466.69;5554584;32;33613;-59
2023/07/06 08:30:08;;;;;;;9.20;3.78;;;;;;;23.38;68.78;100473.41;5567608;32;33654;-60
2023/07/06 08:33:10;;;;;;;7.12;3.78;;;;;;;23.40;68.96;100470.28;5567280;32;34181;-60
2023/07/06 08:36:15;;;;;;;7.43;3.80;;;;;;;23.54;73.83;100470.53;5567266;32;33734;-60
2023/07/06 08:39:17;;;;;;;7.45;3.90;;;;;;;23.76;69.25;100477.16;5574836;31;34322;-60
2023/07/06 08:42:22;;;;;;;7.47;3.87;;;;;;;23.97;69.02;100471.22;5582608;31;33745;-60
2023/07/06 08:45:39;;;;;;;8.45;4.03;;;;;;;24.23;65.71;100466.91;5570349;31;34110;-60
2023/07/06 08:48:41;;;;;;;6.80;3.80;;;;;;;24.35;65.90;100475.69;5547955;32;33582;-59
2023/07/06 08:51:44;;;;;;;5.35;3.58;;;;;;;24.24;63.52;100469.28;5577402;31;33597;-60
2023/07/06 08:54:50;;;;;;;6.65;3.90;;;;;;;24.37;66.30;100470.63;5570996;31;33153;-60
2023/07/06 08:57:54;;;;;;;7.50;3.40;;;;;;;24.49;61.44;100466.88;5588306;31;33522;-60
2023/07/06 09:01:10;;;;;;;6.87;3.25;;;;;;;24.56;65.88;100466.97;5589584;31;33698;-60
2023/07/06 09:04:16;;;;;;;6.10;3.72;;;;;;;24.51;63.57;100458.31;5581038;31;33744;-60
2023/07/06 09:07:25;;;;;;;6.30;3.50;;;;;;;24.56;64.03;100463.44;5574765;31;33591;-59
2023/07/06 09:10:28;;;;;;;6.25;3.60;;;;;;;24.52;60.87;100454.37;5582484;31;33761;-60
2023/07/06 09:13:43;;;;;;;9.63;4.00;;;;;;;24.53;61.46;100450.47;5577091;31;33711;-60
2023/07/06 09:16:48;;;;;;;6.97;3.72;;;;;;;24.63;62.98;100451.78;5563308;32;33657;-59
2023/07/06 09:19:53;;;;;;;8.70;3.80;;;;;;;24.75;62.48;100446.03;5559861;32;33757;-59
2023/07/06 09:22:56;;;;;;;10.60;4.68;;;;;;;24.64;62.12;100447.88;5569810;32;34252;-59
2023/07/06 09:25:58;;;;;;;7.12;3.42;;;;;;;24.63;62.81;100452.56;5570141;31;34417;-59
2023/07/06 09:29:31;;;;;;;7.78;4.10;;;;;;;24.65;62.89;100461.19;5569796;32;34442;-59
2023/07/06 09:32:34;;;;;;;11.05;4.55;;;;;;;24.67;64.19;100456.16;5569279;32;33688;-60
2023/07/06 09:35:38;;;;;;;7.03;4.05;;;;;;;24.70;63.49;100462.81;5569405;32;34497;-59
2023/07/06 09:38:45;;;;;;;7.47;4.10;;;;;;;24.67;62.59;100458.06;5568704;31;33886;-59
2023/07/06 09:41:47;;;;;;;7.90;3.90;;;;;;;24.69;62.77;100453.03;5579853;31;34492;-59
2023/07/06 09:44:51;;;;;;;5.95;3.80;;;;;;;24.80;64.09;100459.41;5589221;31;33610;-59
2023/07/06 09:47:56;;;;;;;8.55;3.80;;;;;;;24.98;64.06;100456.88;5573538;31;33757;-59
2023/07/06 09:51:08;;;;;;;8.10;3.92;;;;;;;25.25;63.33;100452.84;5569396;32;34352;-59
2023/07/06 09:54:17;;;;;;;8.23;3.80;;;;;;;25.38;62.61;100458.84;5572735;31;34141;-59
2023/07/06 09:57:19;;;;;;;5.37;3.72;;;;;;;25.52;61.13;100453.47;5569156;32;33651;-59
2023/07/06 10:00:29;;;;;;;6.90;3.65;;;;;;;25.43;56.13;100460.44;5568008;31;34437;-59
2023/07/06 10:03:36;;;;;;;5.25;3.67;;;;;;;25.43;56.60;100449.47;5577411;31;33803;-61
2023/07/06 10:06:38;;;;;;;6.15;3.12;;;;;;;25.50;56.74;100449.56;5563303;31;33854;-60
2023/07/06 10:09:48;;;;;;;7.05;3.75;;;;;;;25.59;56.56;100449.22;5572284;31;33597;-60
2023/07/06 10:13:01;;;;;;;5.10;3.22;;;;;;;25.67;57.13;100450.84;5569757;31;33929;-59
2023/07/06 10:16:18;;;;;;;;;;;;;;;25.73;56.09;100446.59;5569315;32;33225;-59
2023/07/06 10:19:36;;;;;;;7.78;3.67;;;;;;;25.76;54.65;100446.59;5569424;32;34607;-59
2023/07/06 10:22:44;;;;;;;5.20;3.33;;;;;;;25.71;53.77;100446.16;5569268;31;34321;-59
2023/07/06 10:26:19;;;;;;;9.85;3.53;;;;;;;25.67;55.93;100445.34;5572102;31;34364;-59
2023/07/06 10:29:41;;;;;;;5.75;3.30;;;;;;;25.81;54.25;100440.00;5569149;32;33640;-59
2023/07/06 10:32:47;;;;;;;5.82;3.50;;;;;;;25.79;50.14;100445.03;5569128;32;34213;-59
2023/07/06 10:35:52;;;;;;;5.47;3.28;;;;;;;25.80;51.96;100437.63;5568638;32;33758;-59
2023/07/06 10:38:55;;;;;;;7.62;3.72;;;;;;;25.88;51.87;100437.28;5575125;31;34343;-59
2023/07/06 10:42:00;;;;;;;7.68;3.65;;;;;;;25.97;53.83;100435.00;5588759;31;34344;-59
2023/07/06 10:45:19;;;;;;;6.57;3.25;;;;;;;26.00;55.77;100438.94;5579610;31;34214;-60
2023/07/06 10:48:25;;;;;;;4.97;3.53;;;;;;;25.99;54.29;100437.34;5568638;31;33617;-60
2023/07/06 10:51:27;;;;;;;5.57;3.25;;;;;;;26.07;53.50;100447.22;5567957;32;34365;-58
2023/07/06 10:54:32;;;;;;;6.28;3.70;;;;;;;25.98;52.09;100442.06;5568349;32;33686;-58
2023/07/06 10:57:36;;;;;;;;;;;;;;;26.04;52.56;100450.72;5569319;31;34289;-59
2023/07/06 11:00:44;;;;;;;5.82;3.15;;;;;;;26.10;53.19;100446.44;5569083;32;34691;-59
2023/07/06 11:03:47;;;;;;;6.70;3.40;;;;;;;26.23;51.44;100452.41;5569228;32;34414;-59
2023/07/06 11:06:52;;;;;;;8.32;3.60;;;;;;;26.22;51.15;100450.81;5571314;31;33884;-59
2023/07/06 11:10:14;;;;;;;5.65;3.75;;;;;;;26.15;51.45;100453.53;5575802;31;33663;-59
2023/07/06 11:13:21;;;;;;;6.55;3.83;;;;;;;26.12;54.21;100440.56;5574676;31;34341;-59
2023/07/06 11:16:41;;;;;;;7.45;3.72;;;;;;;26.13;55.08;100448.44;5561246;31;33800;-59
2023/07/06 11:19:59;;;;;;;5.65;3.33;;;;;;;26.15;52.98;100432.34;5568506;32;33902;-59
2023/07/06 11:23:04;;;;;;;5.65;3.20;;;;;;;25.95;53.01;100425.56;5566281;31;33367;-59
2023/07/06 11:26:28;;;;;;;6.57;3.83;;;;;;;25.96;50.32;100433.44;5580718;31;34321;-59
2023/07/06 11:29:31;;;;;;;8.38;3.92;;;;;;;26.06;48.64;100440.16;5588511;31;33571;-59
2023/07/06 11:32:53;;;;;;;7.25;3.50;;;;;;;26.08;49.00;100432.31;5588480;31;34409;-59
2023/07/06 11:36:06;;;;;;;6.35;3.58;;;;;;;26.15;49.81;100428.81;5588338;31;33648;-59
2023/07/06 11:39:15;;;;;;;7.28;3.35;;;;;;;26.25;52.81;100426.09;5570341;31;34421;-59
2023/07/06 11:42:28;;;;;;;5.72;3.50;;;;;;;26.28;54.12;100432.00;5568692;32;34407;-59
2023/07/06 11:45:45;;;;;;;6.32;3.20;;;;;;;26.29;49.34;100437.13;5565674;32;33601;-59
2023/07/06 11:49:15;;;;;;;5.03;3.33;;;;;;;26.30;49.84;100433.22;5569513;31;33714;-58
2023/07/06 11:52:21;;;;;;;4.95;3.40;;;;;;;26.24;49.46;100440.22;5576375;31;33732;-59
2023/07/06 11:55:49;;;;;;;6.22;3.40;;;;;;;26.25;46.73;100439.84;5574422;31;33385;-59
2023/07/06 11:59:01;;;;;;;6.12;3.50;;;;;;;26.29;47.41;100439.88;5568419;32;34445;-61
2023/07/06 12:02:17;;;;;;;5.65;3.40;;;;;;;26.38;48.45;100442.25;5582412;31;33724;-61
2023/07/06 12:05:40;;;;;;;8.13;3.40;;;;;;;26.49;47.57;100443.13;5588028;31;34482;-61
2023/07/06 12:08:44;;;;;;;6.62;3.45;;;;;;;26.46;43.60;100432.88;5579738;31;33718;-62
2023/07/06 12:12:05;;;;;;;5.25;3.20;;;;;;;26.53;45.67;100432.16;5548422;32;33682;-62
2023/07/06 12:15:12;;;;;;;5.47;2.95;;;;;;;26.59;47.55;100430.56;5548283;32;33669;-61
2023/07/06 12:18:15;;;;;;;7.20;3.30;;;;;;;26.62;46.65;100429.81;5548834;32;33538;-62
2023/07/06 12:21:24;;;;;;;5.60;3.17;;;;;;;26.64;45.24;100425.50;5552137;31;33712;-62
2023/07/06 12:24:29;;;;;;;5.47;3.33;;;;;;;26.67;45.72;100430.22;5568337;32;33664;-62
2023/07/06 12:27:33;;;;;;;5.37;3.37;;;;;;;26.71;46.08;100420.00;5568166;32;33383;-62
2023/07/06 12:30:35;;;;;;;8.23;3.67;;;;;;;26.74;45.76;100409.41;5569394;32;34451;-62
2023/07/06 12:33:38;;;;;;;7.30;3.42;;;;;;;26.87;45.78;100407.88;5570532;32;34380;-61
2023/07/06 12:36:42;;;;;;;4.90;3.08;;;;;;;26.95;44.41;100409.44;5570774;32;34353;-62
2023/07/06 12:39:47;;;;;;;5.78;3.17;;;;;;;26.96;44.02;100397.28;5570665;32;33670;-62
2023/07/06 12:42:51;;;;;;;3.92;2.70;;;;;;;26.97;45.37;100404.34;5570704;32;34346;-62
2023/07/06 12:45:54;;;;;;;6.40;2.75;;;;;;;26.98;44.67;100394.13;5570759;32;33781;-62
2023/07/06 12:49:01;;;;;;;6.95;3.22;;;;;;;27.05;40.03;100405.94;5570573;32;33571;-62
2023/07/06 12:52:04;;;;;;;7.55;3.20;;;;;;;26.98;40.11;100408.66;5570629;32;34389;-62
2023/07/06 12:55:13;;;;;;;7.25;3.28;;;;;;;26.94;39.44;100407.88;5570719;32;34355;-62
2023/07/06 12:58:27;;;;;;;5.75;3.22;;;;;;;26.83;40.55;100412.59;5570546;32;34296;-62
2023/07/06 13:01:36;;;;;;;5.50;3.05;;;;;;;26.81;42.00;100406.69;5570592;32;33721;-62
2023/07/06 13:04:44;;;;;;;6.68;3.60;;;;;;;26.79;43.45;100406.28;5570561;32;34324;-62
2023/07/06 13:07:50;;;;;;;5.70;3.37;;;;;;;26.73;40.60;100407.84;5570388;32;34312;-62
2023/07/06 13:10:59;;;;;;;5.60;3.33;;;;;;;26.75;44.30;100406.28;5570419;32;33714;-59
2023/07/06 13:14:06;;;;;;;7.97;3.47;;;;;;;26.81;41.63;100401.19;5570244;32;33678;-59
2023/07/06 13:17:15;;;;;;;9.65;3.58;;;;;;;26.85;41.11;100399.22;5570451;32;34269;-59
2023/07/06 13:20:17;;;;;;;9.20;3.10;;;;;;;26.91;40.57;100392.94;5570305;32;33739;-59
2023/07/06 13:23:20;;;;;;;8.15;3.50;;;;;;;27.05;40.06;100399.63;5570347;32;33360;-59
2023/07/06 13:26:26;;;;;;;9.60;3.40;;;;;;;27.20;37.22;100408.72;5570120;32;34325;-59
2023/07/06 13:29:34;;;;;;;5.37;3.40;;;;;;;27.13;36.69;100388.28;5570314;32;33644;-59
2023/07/06 13:32:39;;;;;;;4.55;3.15;;;;;;;27.08;36.17;100391.38;5570088;32;34210;-59
2023/07/06 13:35:42;;;;;;;8.35;3.75;;;;;;;27.05;36.40;100385.87;5570142;32;33847;-59
2023/07/06 13:38:48;;;;;;;5.78;3.20;;;;;;;27.16;36.10;100387.50;5569822;32;33602;-59
2023/07/06 13:41:50;;;;;;;6.57;3.45;;;;;;;27.35;34.94;100399.28;5569317;32;34399;-59
2023/07/06 13:44:54;;;;;;;7.80;3.47;;;;;;;27.29;36.96;100387.13;5569987;32;34391;-59
2023/07/06 13:47:56;;;;;;;6.03;3.50;;;;;;;27.24;38.09;100387.50;5569505;32;33664;-59
2023/07/06 13:50:59;;;;;;;7.78;3.65;;;;;;;27.31;39.94;100387.50;5569644;32;33702;-59
2023/07/06 13:54:02;;;;;;;9.20;3.87;;;;;;;27.30;40.15;100385.94;5569567;32;33771;-59
2023/07/06 13:57:04;;;;;;;6.00;3.40;;;;;;;27.30;39.73;100374.91;5569656;32;33323;-59
2023/07/06 14:00:10;;;;;;;5.47;3.30;;;;;;;27.35;39.67;100369.00;5569576;32;34397;-59
2023/07/06 14:03:18;;;;;;;4.70;3.17;;;;;;;27.35;40.16;100388.25;5569427;32;35189;-59
2023/07/06 14:06:21;;;;;;;;;;;;;;;27.37;40.17;100378.44;5569750;32;33622;-59
2023/07/06 14:09:23;;;;;;;4.72;3.58;;;;;;;27.31;40.49;100377.25;5569624;32;34669;-59
2023/07/06 14:12:25;;;;;;;10.35;3.67;;;;;;;27.26;41.00;100388.69;5569222;32;33667;-59
2023/07/06 14:15:28;;;;;;;5.45;3.30;;;;;;;27.25;42.93;100389.06;5568772;32;33563;-59
2023/07/06 14:18:31;;;;;;;6.82;3.10;;;;;;;27.16;41.67;100382.00;5569501;32;33727;-59
2023/07/06 14:21:33;;;;;;;4.62;3.30;;;;;;;27.21;41.59;100393.78;5569413;32;33773;-62
2023/07/06 14:24:36;;;;;;;5.25;4.00;;;;;;;27.02;41.69;100395.72;5569486;32;33590;-62
2023/07/06 14:27:38;;;;;;;8.15;3.50;;;;;;;27.03;41.72;100393.75;5569841;32;33532;-62
2023/07/06 14:30:43;;;;;;;9.00;3.70;;;;;;;27.04;42.00;100398.84;5569523;32;33565;-62
2023/07/06 14:33:45;;;;;;;4.47;3.45;;;;;;;27.19;41.40;100396.16;5569344;32;33649;-61
2023/07/06 14:36:49;;;;;;;4.85;3.45;;;;;;;27.44;39.31;100396.91;5569556;32;34516;-61
2023/07/06 14:39:53;;;;;;;4.87;3.17;;;;;;;27.45;40.35;100393.00;5569450;32;33650;-62
2023/07/06 14:42:56;;;;;;;6.87;3.00;;;;;;;27.37;40.62;100391.41;5569154;32;33820;-62
2023/07/06 14:45:58;;;;;;;9.50;3.67;;;;;;;27.30;40.03;100385.94;5569138;32;33831;-62
2023/07/06 14:49:02;;;;;;;5.97;3.20;;;;;;;27.38;41.32;100388.28;5569117;32;34032;-62
2023/07/06 14:52:05;;;;;;;5.03;3.55;;;;;;;27.40;40.87;100383.16;5567985;32;33612;-62
2023/07/06 14:55:08;;;;;;;5.28;3.20;;;;;;;27.33;40.44;100380.41;5569381;32;33203;-62
2023/07/06 14:58:10;;;;;;;6.25;3.00;;;;;;;27.48;40.38;100386.69;5569394;32;33692;-62
2023/07/06 15:01:12;;;;;;;6.70;3.33;;;;;;;27.43;41.50;100394.56;5569426;32;33946;-62
2023/07/06 15:04:15;;;;;;;6.12;3.33;;;;;;;27.36;48.27;100389.84;5569162;32;34292;-62
